sensor_id;sensor_type;location;lat;lon;timestamp;temperature;humidity
13976;DHT22;7062;49.792;9.946;2023-12-20T00:01:37;7.30;99.90
13976;DHT22;7062;49.792;9.946;2023-12-20T00:04:03;7.30;99.90
13976;DHT22;7062;49.792;9.946;2023-12-20T00:06:29;7.20;99.90
13976;DHT22;7062;49.792;9.946;2023-12-20T00:08:55;7.20;99.90
13976;DHT22;7062;49.792;9.946;2023-12-20T00:11:20;7.20;99.90
13976;DHT22;7062;49.792;9.946;2023-12-20T00:13:46;7.20;99.90
13976;DHT22;7062;49.792;9.946;2023-12-20T00:16:12;7.20;99.90
13976;DHT22;7062;49.792;9.946;2023-12-20T00:18:37;7.20;99.90
13976;DHT22;7062;49.792;9.946;2023-12-20T00:21:03;7.20;99.90
13976;DHT22;7062;49.792;9.946;2023-12-20T00:23:29;7.20;99.90
13976;DHT22;7062;49.792;9.946;2023-12-20T00:25:55;7.20;99.90
13976;DHT22;7062;49.792;9.946;2023-12-20T00:28:20;7.30;99.90
13976;DHT22;7062;49.792;9.946;2023-12-20T00:30:46;7.20;99.90
13976;DHT22;7062;49.792;9.946;2023-12-20T00:33:12;7.20;99.90
13976;DHT22;7062;49.792;9.946;2023-12-20T00:35:37;7.20;99.90
13976;DHT22;7062;49.792;9.946;2023-12-20T00:38:03;7.20;99.90
13976;DHT22;7062;49.792;9.946;2023-12-20T00:40:30;7.20;99.90
13976;DHT22;7062;49.792;9.946;2023-12-20T00:42:56;7.30;99.90
13976;DHT22;7062;49.792;9.946;2023-12-20T00:45:21;7.30;99.90
13976;DHT22;7062;49.792;9.946;2023-12-20T00:47:47;7.20;99.90
13976;DHT22;7062;49.792;9.946;2023-12-20T00:50:13;7.20;99.90
13976;DHT22;7062;49.792;9.946;2023-12-20T00:52:38;7.20;99.90
13976;DHT22;7062;49.792;9.946;2023-12-20T00:55:04;7.20;99.90
13976;DHT22;7062;49.792;9.946;2023-12-20T00:57:30;7.10;99.90
13976;DHT22;7062;49.792;9.946;2023-12-20T00:59:56;7.20;99.90
13976;DHT22;7062;49.792;9.946;2023-12-20T01:02:22;7.20;99.90
13976;DHT22;7062;49.792;9.946;2023-12-20T01:04:47;7.20;99.90
13976;DHT22;7062;49.792;9.946;2023-12-20T01:07:13;7.10;99.90
13976;DHT22;7062;49.792;9.946;2023-12-20T01:09:39;7.10;99.90
13976;DHT22;7062;49.792;9.946;2023-12-20T01:12:05;7.20;99.90
13976;DHT22;7062;49.792;9.946;2023-12-20T01:14:30;7.20;99.90
13976;DHT22;7062;49.792;9.946;2023-12-20T01:16:56;7.20;99.90
13976;DHT22;7062;49.792;9.946;2023-12-20T01:19:22;7.20;99.90
13976;DHT22;7062;49.792;9.946;2023-12-20T01:21:48;7.20;99.90
13976;DHT22;7062;49.792;9.946;2023-12-20T01:24:13;7.20;99.90
13976;DHT22;7062;49.792;9.946;2023-12-20T01:26:39;7.20;99.90
13976;DHT22;7062;49.792;9.946;2023-12-20T01:29:05;7.20;99.90
13976;DHT22;7062;49.792;9.946;2023-12-20T01:31:30;7.20;99.90
13976;DHT22;7062;49.792;9.946;2023-12-20T01:33:56;7.20;99.90
13976;DHT22;7062;49.792;9.946;2023-12-20T01:36:21;7.20;99.90
13976;DHT22;7062;49.792;9.946;2023-12-20T01:38:47;7.10;99.90
13976;DHT22;7062;49.792;9.946;2023-12-20T01:41:13;7.00;99.90
13976;DHT22;7062;49.792;9.946;2023-12-20T01:43:38;7.00;99.90
13976;DHT22;7062;49.792;9.946;2023-12-20T01:46:04;7.00;99.90
13976;DHT22;7062;49.792;9.946;2023-12-20T01:48:31;6.90;99.90
13976;DHT22;7062;49.792;9.946;2023-12-20T01:51:00;6.80;99.90
13976;DHT22;7062;49.792;9.946;2023-12-20T01:53:26;6.90;99.90
13976;DHT22;7062;49.792;9.946;2023-12-20T01:55:54;6.80;99.90
13976;DHT22;7062;49.792;9.946;2023-12-20T01:58:21;6.80;99.90
13976;DHT22;7062;49.792;9.946;2023-12-20T02:00:47;6.80;99.90
13976;DHT22;7062;49.792;9.946;2023-12-20T02:03:13;6.80;99.90
13976;DHT22;7062;49.792;9.946;2023-12-20T02:05:40;6.80;99.90
13976;DHT22;7062;49.792;9.946;2023-12-20T02:08:06;6.80;99.90
13976;DHT22;7062;49.792;9.946;2023-12-20T02:10:32;6.80;99.90
13976;DHT22;7062;49.792;9.946;2023-12-20T02:12:58;6.90;99.90
13976;DHT22;7062;49.792;9.946;2023-12-20T02:15:24;6.90;99.90
13976;DHT22;7062;49.792;9.946;2023-12-20T02:17:50;7.00;99.90
13976;DHT22;7062;49.792;9.946;2023-12-20T02:20:16;7.10;99.90
13976;DHT22;7062;49.792;9.946;2023-12-20T02:22:42;7.00;99.90
13976;DHT22;7062;49.792;9.946;2023-12-20T02:25:07;6.90;99.90
13976;DHT22;7062;49.792;9.946;2023-12-20T02:27:34;6.90;99.90
13976;DHT22;7062;49.792;9.946;2023-12-20T02:30:00;6.90;99.90
13976;DHT22;7062;49.792;9.946;2023-12-20T02:32:26;6.90;99.90
13976;DHT22;7062;49.792;9.946;2023-12-20T02:34:52;7.00;99.90
13976;DHT22;7062;49.792;9.946;2023-12-20T02:37:17;6.90;99.90
13976;DHT22;7062;49.792;9.946;2023-12-20T02:39:43;6.80;99.90
13976;DHT22;7062;49.792;9.946;2023-12-20T02:42:09;6.80;99.90
13976;DHT22;7062;49.792;9.946;2023-12-20T02:44:34;6.80;99.90
13976;DHT22;7062;49.792;9.946;2023-12-20T02:47:00;6.80;99.90
13976;DHT22;7062;49.792;9.946;2023-12-20T02:49:26;6.70;99.90
13976;DHT22;7062;49.792;9.946;2023-12-20T02:51:51;6.70;99.90
13976;DHT22;7062;49.792;9.946;2023-12-20T02:54:17;6.80;99.90
13976;DHT22;7062;49.792;9.946;2023-12-20T02:56:42;6.80;99.90
13976;DHT22;7062;49.792;9.946;2023-12-20T02:59:08;6.70;99.90
13976;DHT22;7062;49.792;9.946;2023-12-20T03:01:34;6.70;99.90
13976;DHT22;7062;49.792;9.946;2023-12-20T03:04:01;6.70;99.90
13976;DHT22;7062;49.792;9.946;2023-12-20T03:06:26;6.80;99.90
13976;DHT22;7062;49.792;9.946;2023-12-20T03:08:52;6.80;99.90
13976;DHT22;7062;49.792;9.946;2023-12-20T03:11:18;6.90;99.90
13976;DHT22;7062;49.792;9.946;2023-12-20T03:13:44;6.80;99.90
13976;DHT22;7062;49.792;9.946;2023-12-20T03:16:10;6.90;99.90
13976;DHT22;7062;49.792;9.946;2023-12-20T03:18:36;6.80;99.90
13976;DHT22;7062;49.792;9.946;2023-12-20T03:21:02;6.90;99.90
13976;DHT22;7062;49.792;9.946;2023-12-20T03:23:28;6.90;99.90
13976;DHT22;7062;49.792;9.946;2023-12-20T03:25:56;6.90;99.90
13976;DHT22;7062;49.792;9.946;2023-12-20T03:28:21;7.00;99.90
13976;DHT22;7062;49.792;9.946;2023-12-20T03:30:48;7.10;99.90
13976;DHT22;7062;49.792;9.946;2023-12-20T03:33:14;7.10;99.90
13976;DHT22;7062;49.792;9.946;2023-12-20T03:35:39;7.00;99.90
13976;DHT22;7062;49.792;9.946;2023-12-20T03:38:05;7.00;99.90
13976;DHT22;7062;49.792;9.946;2023-12-20T03:40:31;7.00;99.90
13976;DHT22;7062;49.792;9.946;2023-12-20T03:42:56;7.10;99.90
13976;DHT22;7062;49.792;9.946;2023-12-20T03:45:22;6.90;99.90
13976;DHT22;7062;49.792;9.946;2023-12-20T03:47:48;6.90;99.90
13976;DHT22;7062;49.792;9.946;2023-12-20T03:50:14;6.90;99.90
13976;DHT22;7062;49.792;9.946;2023-12-20T03:52:39;6.90;99.90
13976;DHT22;7062;49.792;9.946;2023-12-20T03:55:05;6.90;99.90
13976;DHT22;7062;49.792;9.946;2023-12-20T03:57:31;6.90;99.90
13976;DHT22;7062;49.792;9.946;2023-12-20T03:59:56;7.00;99.90
13976;DHT22;7062;49.792;9.946;2023-12-20T04:02:22;7.00;99.90
13976;DHT22;7062;49.792;9.946;2023-12-20T04:04:48;7.00;99.90
13976;DHT22;7062;49.792;9.946;2023-12-20T04:07:13;7.00;99.90
13976;DHT22;7062;49.792;9.946;2023-12-20T04:09:40;7.20;99.90
13976;DHT22;7062;49.792;9.946;2023-12-20T04:12:06;7.00;99.90
13976;DHT22;7062;49.792;9.946;2023-12-20T04:14:32;7.10;99.90
13976;DHT22;7062;49.792;9.946;2023-12-20T04:16:58;7.10;99.90
13976;DHT22;7062;49.792;9.946;2023-12-20T04:19:23;7.10;99.90
13976;DHT22;7062;49.792;9.946;2023-12-20T04:21:49;7.10;99.90
13976;DHT22;7062;49.792;9.946;2023-12-20T04:24:15;7.00;99.90
13976;DHT22;7062;49.792;9.946;2023-12-20T04:26:40;7.00;99.90
13976;DHT22;7062;49.792;9.946;2023-12-20T04:29:06;7.10;99.90
13976;DHT22;7062;49.792;9.946;2023-12-20T04:31:32;7.10;99.90
13976;DHT22;7062;49.792;9.946;2023-12-20T04:33:57;7.20;99.90
13976;DHT22;7062;49.792;9.946;2023-12-20T04:36:23;7.20;99.90
13976;DHT22;7062;49.792;9.946;2023-12-20T04:38:50;7.20;99.90
13976;DHT22;7062;49.792;9.946;2023-12-20T04:41:16;7.30;99.90
13976;DHT22;7062;49.792;9.946;2023-12-20T04:43:44;7.40;99.90
13976;DHT22;7062;49.792;9.946;2023-12-20T04:46:10;7.50;99.90
13976;DHT22;7062;49.792;9.946;2023-12-20T04:48:36;7.60;99.90
13976;DHT22;7062;49.792;9.946;2023-12-20T04:51:02;7.70;99.90
13976;DHT22;7062;49.792;9.946;2023-12-20T04:53:27;7.70;99.90
13976;DHT22;7062;49.792;9.946;2023-12-20T04:55:53;7.90;99.90
13976;DHT22;7062;49.792;9.946;2023-12-20T04:58:19;7.80;99.90
13976;DHT22;7062;49.792;9.946;2023-12-20T05:00:44;7.90;99.90
13976;DHT22;7062;49.792;9.946;2023-12-20T05:03:10;7.90;99.90
13976;DHT22;7062;49.792;9.946;2023-12-20T05:05:36;8.00;99.90
13976;DHT22;7062;49.792;9.946;2023-12-20T05:08:01;7.70;99.90
13976;DHT22;7062;49.792;9.946;2023-12-20T05:10:27;7.50;99.90
13976;DHT22;7062;49.792;9.946;2023-12-20T05:12:53;7.30;99.90
13976;DHT22;7062;49.792;9.946;2023-12-20T05:15:19;7.20;99.90
13976;DHT22;7062;49.792;9.946;2023-12-20T05:17:44;7.20;99.90
13976;DHT22;7062;49.792;9.946;2023-12-20T05:20:10;7.20;99.90
13976;DHT22;7062;49.792;9.946;2023-12-20T05:22:36;7.10;99.90
13976;DHT22;7062;49.792;9.946;2023-12-20T05:25:01;7.00;99.90
13976;DHT22;7062;49.792;9.946;2023-12-20T05:27:27;7.00;99.90
13976;DHT22;7062;49.792;9.946;2023-12-20T05:29:53;7.20;99.90
13976;DHT22;7062;49.792;9.946;2023-12-20T05:32:23;7.20;99.90
13976;DHT22;7062;49.792;9.946;2023-12-20T05:34:48;7.30;99.90
13976;DHT22;7062;49.792;9.946;2023-12-20T05:37:14;7.30;99.90
13976;DHT22;7062;49.792;9.946;2023-12-20T05:39:40;7.20;99.90
13976;DHT22;7062;49.792;9.946;2023-12-20T05:42:05;7.20;99.90
13976;DHT22;7062;49.792;9.946;2023-12-20T05:44:31;7.30;99.90
13976;DHT22;7062;49.792;9.946;2023-12-20T05:46:56;7.30;99.90
13976;DHT22;7062;49.792;9.946;2023-12-20T05:49:22;7.20;99.90
13976;DHT22;7062;49.792;9.946;2023-12-20T05:51:48;7.20;99.90
13976;DHT22;7062;49.792;9.946;2023-12-20T05:54:13;7.00;99.90
13976;DHT22;7062;49.792;9.946;2023-12-20T05:56:39;7.00;99.90
13976;DHT22;7062;49.792;9.946;2023-12-20T05:59:05;6.90;99.90
13976;DHT22;7062;49.792;9.946;2023-12-20T06:01:30;6.90;99.90
13976;DHT22;7062;49.792;9.946;2023-12-20T06:03:56;6.90;99.90
13976;DHT22;7062;49.792;9.946;2023-12-20T06:06:22;6.90;99.90
13976;DHT22;7062;49.792;9.946;2023-12-20T06:08:48;6.90;99.90
13976;DHT22;7062;49.792;9.946;2023-12-20T06:11:14;7.00;99.90
13976;DHT22;7062;49.792;9.946;2023-12-20T06:13:40;7.00;99.90
13976;DHT22;7062;49.792;9.946;2023-12-20T06:16:06;7.10;99.90
13976;DHT22;7062;49.792;9.946;2023-12-20T06:18:35;7.20;99.90
13976;DHT22;7062;49.792;9.946;2023-12-20T06:21:02;7.10;99.90
13976;DHT22;7062;49.792;9.946;2023-12-20T06:23:28;7.10;99.90
13976;DHT22;7062;49.792;9.946;2023-12-20T06:25:53;7.00;99.90
13976;DHT22;7062;49.792;9.946;2023-12-20T06:28:19;7.00;99.90
13976;DHT22;7062;49.792;9.946;2023-12-20T06:30:45;7.00;99.90
13976;DHT22;7062;49.792;9.946;2023-12-20T06:33:12;7.00;99.90
13976;DHT22;7062;49.792;9.946;2023-12-20T06:35:39;7.00;99.90
13976;DHT22;7062;49.792;9.946;2023-12-20T06:38:04;7.00;99.90
13976;DHT22;7062;49.792;9.946;2023-12-20T06:40:30;7.10;99.90
13976;DHT22;7062;49.792;9.946;2023-12-20T06:42:56;7.10;99.90
13976;DHT22;7062;49.792;9.946;2023-12-20T06:45:21;7.10;99.90
13976;DHT22;7062;49.792;9.946;2023-12-20T06:47:47;7.10;99.90
13976;DHT22;7062;49.792;9.946;2023-12-20T06:50:13;7.10;99.90
13976;DHT22;7062;49.792;9.946;2023-12-20T06:52:38;7.10;99.90
13976;DHT22;7062;49.792;9.946;2023-12-20T06:55:04;7.10;99.90
13976;DHT22;7062;49.792;9.946;2023-12-20T06:57:30;7.10;99.90
13976;DHT22;7062;49.792;9.946;2023-12-20T06:59:56;7.10;99.90
13976;DHT22;7062;49.792;9.946;2023-12-20T07:02:22;7.10;99.90
13976;DHT22;7062;49.792;9.946;2023-12-20T07:04:47;7.10;99.90
13976;DHT22;7062;49.792;9.946;2023-12-20T07:07:13;7.10;99.90
13976;DHT22;7062;49.792;9.946;2023-12-20T07:09:39;7.00;99.90
13976;DHT22;7062;49.792;9.946;2023-12-20T07:12:06;7.10;99.90
13976;DHT22;7062;49.792;9.946;2023-12-20T07:14:32;7.10;99.90
13976;DHT22;7062;49.792;9.946;2023-12-20T07:16:57;7.10;99.90
13976;DHT22;7062;49.792;9.946;2023-12-20T07:19:23;7.10;99.90
13976;DHT22;7062;49.792;9.946;2023-12-20T07:21:49;7.10;99.90
13976;DHT22;7062;49.792;9.946;2023-12-20T07:24:14;7.20;99.90
13976;DHT22;7062;49.792;9.946;2023-12-20T07:26:40;7.10;99.90
13976;DHT22;7062;49.792;9.946;2023-12-20T07:29:05;7.10;99.90
13976;DHT22;7062;49.792;9.946;2023-12-20T07:31:32;7.10;99.90
13976;DHT22;7062;49.792;9.946;2023-12-20T07:33:58;7.10;99.90
13976;DHT22;7062;49.792;9.946;2023-12-20T07:36:23;7.10;99.90
13976;DHT22;7062;49.792;9.946;2023-12-20T07:38:49;7.00;99.90
13976;DHT22;7062;49.792;9.946;2023-12-20T07:41:15;7.00;99.90
13976;DHT22;7062;49.792;9.946;2023-12-20T07:43:46;7.10;99.90
13976;DHT22;7062;49.792;9.946;2023-12-20T07:46:12;7.00;99.90
13976;DHT22;7062;49.792;9.946;2023-12-20T07:48:38;7.00;99.90
13976;DHT22;7062;49.792;9.946;2023-12-20T07:51:04;6.90;99.90
13976;DHT22;7062;49.792;9.946;2023-12-20T07:53:32;6.90;99.90
13976;DHT22;7062;49.792;9.946;2023-12-20T07:55:58;6.80;99.90
13976;DHT22;7062;49.792;9.946;2023-12-20T07:58:23;6.70;99.90
13976;DHT22;7062;49.792;9.946;2023-12-20T08:00:49;6.80;99.90
13976;DHT22;7062;49.792;9.946;2023-12-20T08:03:15;6.70;99.90
13976;DHT22;7062;49.792;9.946;2023-12-20T08:05:40;6.60;99.90
13976;DHT22;7062;49.792;9.946;2023-12-20T08:08:06;6.50;99.90
13976;DHT22;7062;49.792;9.946;2023-12-20T08:10:32;6.60;99.90
13976;DHT22;7062;49.792;9.946;2023-12-20T08:12:57;6.50;99.90
13976;DHT22;7062;49.792;9.946;2023-12-20T08:15:23;6.50;99.90
13976;DHT22;7062;49.792;9.946;2023-12-20T08:17:49;6.50;99.90
13976;DHT22;7062;49.792;9.946;2023-12-20T08:20:16;6.50;99.90
13976;DHT22;7062;49.792;9.946;2023-12-20T08:22:42;6.50;99.90
13976;DHT22;7062;49.792;9.946;2023-12-20T08:25:08;6.50;99.90
13976;DHT22;7062;49.792;9.946;2023-12-20T08:27:38;6.50;99.90
13976;DHT22;7062;49.792;9.946;2023-12-20T08:30:04;6.60;99.90
13976;DHT22;7062;49.792;9.946;2023-12-20T08:32:30;6.60;99.90
13976;DHT22;7062;49.792;9.946;2023-12-20T08:34:55;6.60;99.90
13976;DHT22;7062;49.792;9.946;2023-12-20T08:37:21;6.60;99.90
13976;DHT22;7062;49.792;9.946;2023-12-20T08:39:46;6.70;99.90
13976;DHT22;7062;49.792;9.946;2023-12-20T08:42:12;6.60;99.90
13976;DHT22;7062;49.792;9.946;2023-12-20T08:44:38;6.60;99.90
13976;DHT22;7062;49.792;9.946;2023-12-20T08:47:03;6.70;99.90
13976;DHT22;7062;49.792;9.946;2023-12-20T08:49:29;6.70;99.90
13976;DHT22;7062;49.792;9.946;2023-12-20T08:51:55;6.70;99.90
13976;DHT22;7062;49.792;9.946;2023-12-20T08:54:20;6.90;99.90
13976;DHT22;7062;49.792;9.946;2023-12-20T08:56:46;6.90;99.90
13976;DHT22;7062;49.792;9.946;2023-12-20T08:59:12;6.90;99.90
13976;DHT22;7062;49.792;9.946;2023-12-20T09:01:38;7.00;99.90
13976;DHT22;7062;49.792;9.946;2023-12-20T09:04:04;6.90;99.90
13976;DHT22;7062;49.792;9.946;2023-12-20T09:06:29;7.00;99.90
13976;DHT22;7062;49.792;9.946;2023-12-20T09:08:55;7.00;99.90
13976;DHT22;7062;49.792;9.946;2023-12-20T09:11:21;7.00;99.90
13976;DHT22;7062;49.792;9.946;2023-12-20T09:13:46;6.80;99.90
13976;DHT22;7062;49.792;9.946;2023-12-20T09:16:12;6.90;99.90
13976;DHT22;7062;49.792;9.946;2023-12-20T09:18:39;6.90;99.90
13976;DHT22;7062;49.792;9.946;2023-12-20T09:21:04;6.90;99.90
13976;DHT22;7062;49.792;9.946;2023-12-20T09:23:30;7.00;99.90
13976;DHT22;7062;49.792;9.946;2023-12-20T09:25:56;7.00;99.90
13976;DHT22;7062;49.792;9.946;2023-12-20T09:28:21;6.90;99.90
13976;DHT22;7062;49.792;9.946;2023-12-20T09:30:47;6.90;99.90
13976;DHT22;7062;49.792;9.946;2023-12-20T09:33:13;7.00;99.90
13976;DHT22;7062;49.792;9.946;2023-12-20T09:35:39;7.20;99.90
13976;DHT22;7062;49.792;9.946;2023-12-20T09:38:05;7.30;99.90
13976;DHT22;7062;49.792;9.946;2023-12-20T09:40:32;7.50;99.90
13976;DHT22;7062;49.792;9.946;2023-12-20T09:43:10;7.60;99.90
13976;DHT22;7062;49.792;9.946;2023-12-20T09:45:36;7.70;99.90
13976;DHT22;7062;49.792;9.946;2023-12-20T09:48:03;7.70;99.90
13976;DHT22;7062;49.792;9.946;2023-12-20T09:50:30;7.70;99.90
13976;DHT22;7062;49.792;9.946;2023-12-20T09:52:58;7.70;99.90
13976;DHT22;7062;49.792;9.946;2023-12-20T09:55:27;7.80;99.90
13976;DHT22;7062;49.792;9.946;2023-12-20T09:57:54;7.80;99.90
13976;DHT22;7062;49.792;9.946;2023-12-20T10:00:20;7.90;99.90
13976;DHT22;7062;49.792;9.946;2023-12-20T10:02:54;7.90;99.90
13976;DHT22;7062;49.792;9.946;2023-12-20T10:05:30;7.90;99.90
13976;DHT22;7062;49.792;9.946;2023-12-20T10:07:55;8.00;99.90
13976;DHT22;7062;49.792;9.946;2023-12-20T10:10:22;8.10;99.90
13976;DHT22;7062;49.792;9.946;2023-12-20T10:13:03;8.10;99.90
13976;DHT22;7062;49.792;9.946;2023-12-20T10:15:29;8.20;99.90
13976;DHT22;7062;49.792;9.946;2023-12-20T10:17:56;8.20;99.90
13976;DHT22;7062;49.792;9.946;2023-12-20T10:20:22;8.20;99.90
13976;DHT22;7062;49.792;9.946;2023-12-20T10:22:48;8.10;99.90
13976;DHT22;7062;49.792;9.946;2023-12-20T10:25:14;8.10;99.90
13976;DHT22;7062;49.792;9.946;2023-12-20T10:27:40;8.00;99.90
13976;DHT22;7062;49.792;9.946;2023-12-20T10:30:06;7.90;99.90
13976;DHT22;7062;49.792;9.946;2023-12-20T10:32:32;8.10;99.90
13976;DHT22;7062;49.792;9.946;2023-12-20T10:34:58;8.90;99.90
13976;DHT22;7062;49.792;9.946;2023-12-20T10:37:24;10.30;99.90
13976;DHT22;7062;49.792;9.946;2023-12-20T10:39:52;11.50;99.90
13976;DHT22;7062;49.792;9.946;2023-12-20T10:42:22;10.70;99.90
13976;DHT22;7062;49.792;9.946;2023-12-20T10:44:49;9.80;99.90
13976;DHT22;7062;49.792;9.946;2023-12-20T10:47:15;9.30;99.90
13976;DHT22;7062;49.792;9.946;2023-12-20T10:49:42;8.90;99.90
13976;DHT22;7062;49.792;9.946;2023-12-20T10:52:11;8.60;99.90
13976;DHT22;7062;49.792;9.946;2023-12-20T10:54:38;8.60;99.90
13976;DHT22;7062;49.792;9.946;2023-12-20T10:57:05;8.70;99.90
13976;DHT22;7062;49.792;9.946;2023-12-20T10:59:33;8.60;99.90
13976;DHT22;7062;49.792;9.946;2023-12-20T11:02:02;8.80;99.90
13976;DHT22;7062;49.792;9.946;2023-12-20T11:04:53;9.00;99.90
13976;DHT22;7062;49.792;9.946;2023-12-20T11:07:33;9.10;99.90
13976;DHT22;7062;49.792;9.946;2023-12-20T11:10:10;8.90;99.90
13976;DHT22;7062;49.792;9.946;2023-12-20T11:12:49;8.80;99.90
13976;DHT22;7062;49.792;9.946;2023-12-20T11:15:16;8.60;99.90
13976;DHT22;7062;49.792;9.946;2023-12-20T11:17:44;8.40;99.90
13976;DHT22;7062;49.792;9.946;2023-12-20T11:20:11;8.30;99.90
13976;DHT22;7062;49.792;9.946;2023-12-20T11:22:37;8.30;99.90
13976;DHT22;7062;49.792;9.946;2023-12-20T11:25:10;8.10;99.90
13976;DHT22;7062;49.792;9.946;2023-12-20T11:27:37;8.00;99.90
13976;DHT22;7062;49.792;9.946;2023-12-20T11:30:05;8.00;99.90
13976;DHT22;7062;49.792;9.946;2023-12-20T11:32:37;8.00;99.90
13976;DHT22;7062;49.792;9.946;2023-12-20T11:37:38;8.00;99.90
13976;DHT22;7062;49.792;9.946;2023-12-20T11:40:11;7.90;99.90
13976;DHT22;7062;49.792;9.946;2023-12-20T11:42:49;7.90;99.90
13976;DHT22;7062;49.792;9.946;2023-12-20T11:45:21;7.90;99.90
13976;DHT22;7062;49.792;9.946;2023-12-20T11:47:48;8.30;99.90
13976;DHT22;7062;49.792;9.946;2023-12-20T11:50:19;7.90;99.90
13976;DHT22;7062;49.792;9.946;2023-12-20T11:52:45;7.90;99.90
13976;DHT22;7062;49.792;9.946;2023-12-20T11:55:11;7.90;99.90
13976;DHT22;7062;49.792;9.946;2023-12-20T11:57:37;7.90;99.90
13976;DHT22;7062;49.792;9.946;2023-12-20T12:00:03;7.80;99.90
13976;DHT22;7062;49.792;9.946;2023-12-20T12:02:30;7.80;99.90
13976;DHT22;7062;49.792;9.946;2023-12-20T12:04:56;7.90;99.90
13976;DHT22;7062;49.792;9.946;2023-12-20T12:07:24;7.90;99.90
13976;DHT22;7062;49.792;9.946;2023-12-20T12:09:49;7.90;99.90
13976;DHT22;7062;49.792;9.946;2023-12-20T12:12:15;7.80;99.90
13976;DHT22;7062;49.792;9.946;2023-12-20T12:14:41;7.90;99.90
13976;DHT22;7062;49.792;9.946;2023-12-20T12:17:13;7.80;99.90
13976;DHT22;7062;49.792;9.946;2023-12-20T12:19:40;7.80;99.90
13976;DHT22;7062;49.792;9.946;2023-12-20T12:24:39;8.00;99.90
13976;DHT22;7062;49.792;9.946;2023-12-20T12:27:08;8.10;99.90
13976;DHT22;7062;49.792;9.946;2023-12-20T12:29:35;8.20;99.90
13976;DHT22;7062;49.792;9.946;2023-12-20T12:32:01;8.20;99.90
13976;DHT22;7062;49.792;9.946;2023-12-20T12:34:30;8.20;99.90
13976;DHT22;7062;49.792;9.946;2023-12-20T12:36:56;8.20;99.90
13976;DHT22;7062;49.792;9.946;2023-12-20T12:39:24;8.20;99.90
13976;DHT22;7062;49.792;9.946;2023-12-20T12:41:56;8.20;99.90
13976;DHT22;7062;49.792;9.946;2023-12-20T12:44:22;8.20;99.90
13976;DHT22;7062;49.792;9.946;2023-12-20T12:46:50;8.10;99.90
13976;DHT22;7062;49.792;9.946;2023-12-20T12:49:17;8.10;99.90
13976;DHT22;7062;49.792;9.946;2023-12-20T12:51:43;8.10;99.90
13976;DHT22;7062;49.792;9.946;2023-12-20T12:54:09;8.10;99.90
13976;DHT22;7062;49.792;9.946;2023-12-20T12:56:35;8.00;99.90
13976;DHT22;7062;49.792;9.946;2023-12-20T12:59:01;8.00;99.90
13976;DHT22;7062;49.792;9.946;2023-12-20T13:01:27;7.90;99.90
13976;DHT22;7062;49.792;9.946;2023-12-20T13:03:53;7.90;99.90
13976;DHT22;7062;49.792;9.946;2023-12-20T13:06:19;8.00;99.90
13976;DHT22;7062;49.792;9.946;2023-12-20T13:08:45;8.00;99.90
13976;DHT22;7062;49.792;9.946;2023-12-20T13:11:11;8.00;99.90
13976;DHT22;7062;49.792;9.946;2023-12-20T13:13:36;7.90;99.90
13976;DHT22;7062;49.792;9.946;2023-12-20T13:16:02;7.80;99.90
13976;DHT22;7062;49.792;9.946;2023-12-20T13:18:28;7.70;99.90
13976;DHT22;7062;49.792;9.946;2023-12-20T13:20:54;7.80;99.90
13976;DHT22;7062;49.792;9.946;2023-12-20T13:23:19;7.70;99.90
13976;DHT22;7062;49.792;9.946;2023-12-20T13:25:45;7.70;99.90
13976;DHT22;7062;49.792;9.946;2023-12-20T13:28:12;7.70;99.90
13976;DHT22;7062;49.792;9.946;2023-12-20T13:30:38;7.70;99.90
13976;DHT22;7062;49.792;9.946;2023-12-20T13:33:04;7.60;99.90
13976;DHT22;7062;49.792;9.946;2023-12-20T13:35:31;7.60;99.90
13976;DHT22;7062;49.792;9.946;2023-12-20T13:37:57;7.60;99.90
13976;DHT22;7062;49.792;9.946;2023-12-20T13:40:23;7.60;99.90
13976;DHT22;7062;49.792;9.946;2023-12-20T13:42:49;7.50;99.90
13976;DHT22;7062;49.792;9.946;2023-12-20T13:45:15;7.50;99.90
13976;DHT22;7062;49.792;9.946;2023-12-20T13:47:40;7.60;99.90
13976;DHT22;7062;49.792;9.946;2023-12-20T13:50:06;7.60;99.90
13976;DHT22;7062;49.792;9.946;2023-12-20T13:52:32;7.60;99.90
13976;DHT22;7062;49.792;9.946;2023-12-20T13:54:58;7.70;99.90
13976;DHT22;7062;49.792;9.946;2023-12-20T13:57:23;7.70;99.90
13976;DHT22;7062;49.792;9.946;2023-12-20T13:59:49;7.80;99.90
13976;DHT22;7062;49.792;9.946;2023-12-20T14:02:14;7.70;99.90
13976;DHT22;7062;49.792;9.946;2023-12-20T14:04:41;7.70;99.90
13976;DHT22;7062;49.792;9.946;2023-12-20T14:07:07;7.80;99.90
13976;DHT22;7062;49.792;9.946;2023-12-20T14:09:33;7.90;99.90
13976;DHT22;7062;49.792;9.946;2023-12-20T14:11:59;7.90;99.90
13976;DHT22;7062;49.792;9.946;2023-12-20T14:14:25;8.00;99.90
13976;DHT22;7062;49.792;9.946;2023-12-20T14:16:50;8.10;99.90
13976;DHT22;7062;49.792;9.946;2023-12-20T14:19:17;8.10;99.90
13976;DHT22;7062;49.792;9.946;2023-12-20T14:21:43;8.10;99.90
13976;DHT22;7062;49.792;9.946;2023-12-20T14:24:13;8.10;99.90
13976;DHT22;7062;49.792;9.946;2023-12-20T14:26:42;8.00;99.90
13976;DHT22;7062;49.792;9.946;2023-12-20T14:29:07;8.00;99.90
13976;DHT22;7062;49.792;9.946;2023-12-20T14:31:33;8.00;99.90
13976;DHT22;7062;49.792;9.946;2023-12-20T14:33:59;8.00;99.90
13976;DHT22;7062;49.792;9.946;2023-12-20T14:36:29;8.00;99.90
13976;DHT22;7062;49.792;9.946;2023-12-20T14:38:56;8.00;99.90
13976;DHT22;7062;49.792;9.946;2023-12-20T14:41:22;8.00;99.90
13976;DHT22;7062;49.792;9.946;2023-12-20T14:43:50;7.90;99.90
13976;DHT22;7062;49.792;9.946;2023-12-20T14:46:17;7.80;99.90
13976;DHT22;7062;49.792;9.946;2023-12-20T14:48:42;7.80;99.90
13976;DHT22;7062;49.792;9.946;2023-12-20T14:51:08;7.80;99.90
13976;DHT22;7062;49.792;9.946;2023-12-20T14:53:34;7.80;99.90
13976;DHT22;7062;49.792;9.946;2023-12-20T14:56:05;7.70;99.90
13976;DHT22;7062;49.792;9.946;2023-12-20T14:58:31;7.80;99.90
13976;DHT22;7062;49.792;9.946;2023-12-20T15:00:57;7.80;99.90
13976;DHT22;7062;49.792;9.946;2023-12-20T15:03:23;7.70;99.90
13976;DHT22;7062;49.792;9.946;2023-12-20T15:05:49;7.60;99.90
13976;DHT22;7062;49.792;9.946;2023-12-20T15:08:15;7.70;99.90
13976;DHT22;7062;49.792;9.946;2023-12-20T15:10:41;7.60;99.90
13976;DHT22;7062;49.792;9.946;2023-12-20T15:13:07;7.50;99.90
13976;DHT22;7062;49.792;9.946;2023-12-20T15:15:32;7.50;99.90
13976;DHT22;7062;49.792;9.946;2023-12-20T15:17:59;7.50;99.90
13976;DHT22;7062;49.792;9.946;2023-12-20T15:20:25;7.50;99.90
13976;DHT22;7062;49.792;9.946;2023-12-20T15:22:51;7.40;99.90
13976;DHT22;7062;49.792;9.946;2023-12-20T15:25:17;7.40;99.90
13976;DHT22;7062;49.792;9.946;2023-12-20T15:27:47;7.40;99.90
13976;DHT22;7062;49.792;9.946;2023-12-20T15:30:19;7.50;99.90
13976;DHT22;7062;49.792;9.946;2023-12-20T15:32:44;7.40;99.90
13976;DHT22;7062;49.792;9.946;2023-12-20T15:35:10;7.40;99.90
13976;DHT22;7062;49.792;9.946;2023-12-20T15:37:38;7.40;99.90
13976;DHT22;7062;49.792;9.946;2023-12-20T15:40:04;7.40;99.90
13976;DHT22;7062;49.792;9.946;2023-12-20T15:42:30;7.30;99.90
13976;DHT22;7062;49.792;9.946;2023-12-20T15:44:57;7.30;99.90
13976;DHT22;7062;49.792;9.946;2023-12-20T15:47:23;7.30;99.90
13976;DHT22;7062;49.792;9.946;2023-12-20T15:49:48;7.30;99.90
13976;DHT22;7062;49.792;9.946;2023-12-20T15:52:15;7.30;99.90
13976;DHT22;7062;49.792;9.946;2023-12-20T15:54:40;7.30;99.90
13976;DHT22;7062;49.792;9.946;2023-12-20T15:57:07;7.20;99.90
13976;DHT22;7062;49.792;9.946;2023-12-20T15:59:32;7.30;99.90
13976;DHT22;7062;49.792;9.946;2023-12-20T16:01:58;7.30;99.90